Time;durP1;ratioP1;P1;durP2;ratioP2;P2;SDS_P1;SDS_P2;PMS_P1;PMS_P2;Temp;Humidity;BMP_temperature;BMP_pressure;BME280_temperature;BME280_humidity;BME280_pressure;Samples;Min_cycle;Max_cycle;Signal;HPM_P1;HPM_P2
2021/12/05 00:24:22;;;;;;;259.92;101.68;;;;;;;;;;5050342;28;20429;-81
2021/12/05 00:26:49;;;;;;;242.55;98.38;;;;;;;;;;5040164;28;20059;-80
2021/12/05 00:29:39;;;;;;;220.10;92.07;;;;;;;;;;5048062;28;20056;-82
2021/12/05 00:32:13;;;;;;;229.52;94.93;;;;;;;;;;5045355;28;20033;-80
2021/12/05 00:59:43;;;;;;;209.52;86.75;;;;;;;;;;5065576;28;20059;-83
2021/12/05 01:02:32;;;;;;;260.75;98.97;;;;;;;;;;5061079;28;20048;-80
2021/12/05 01:05:21;;;;;;;228.68;96.45;;;;;;;;;;5048835;28;20082;-79
2021/12/05 01:15:44;;;;;;;224.13;95.65;;;;;;;;;;5061171;28;20107;-81
2021/12/05 01:18:16;;;;;;;207.52;93.07;;;;;;;;;;5065089;28;20056;-80
2021/12/05 01:20:45;;;;;;;207.77;92.20;;;;;;;;;;5063352;28;20066;-80
2021/12/05 01:23:32;;;;;;;224.32;94.20;;;;;;;;;;5066766;28;20025;-78
2021/12/05 01:26:05;;;;;;;210.55;91.70;;;;;;;;;;5068432;28;20012;-79
2021/12/05 01:29:01;;;;;;;226.75;97.95;;;;;;;;;;5073608;28;20055;-81
2021/12/05 01:36:44;;;;;;;211.52;92.93;;;;;;;;;;5042479;28;20088;-80
2021/12/05 01:52:41;;;;;;;246.68;99.07;;;;;;;;;;5045950;28;20519;-81
2021/12/05 02:11:39;;;;;;;205.10;85.38;;;;;;;;;;5048361;28;20541;-81
2021/12/05 02:33:02;;;;;;;188.60;85.63;;;;;;;;;;5047984;28;20021;-81
2021/12/05 02:38:13;;;;;;;196.15;85.65;;;;;;;;;;5072899;28;20105;-81
2021/12/05 02:43:20;;;;;;;184.32;83.70;;;;;;;;;;5072686;28;20554;-82
2021/12/05 02:45:47;;;;;;;199.90;88.82;;;;;;;;;;5073325;28;20051;-80
2021/12/05 02:48:17;;;;;;;168.10;80.50;;;;;;;;;;5060601;28;20017;-83
2021/12/05 02:50:44;;;;;;;190.30;84.65;;;;;;;;;;5052771;28;20033;-82
2021/12/05 02:53:20;;;;;;;177.25;84.65;;;;;;;;;;5071707;28;20024;-82
2021/12/05 02:55:47;;;;;;;177.32;82.90;;;;;;;;;;5044195;28;20033;-82
2021/12/05 02:58:28;;;;;;;185.82;83.15;;;;;;;;;;5072662;28;20522;-83
2021/12/05 03:03:27;;;;;;;178.73;84.35;;;;;;;;;;5065285;28;20044;-81
2021/12/05 03:06:04;;;;;;;186.18;85.50;;;;;;;;;;5063372;28;20079;-83
2021/12/05 03:08:31;;;;;;;186.98;83.97;;;;;;;;;;5073514;28;20025;-81
2021/12/05 03:10:58;;;;;;;232.85;85.85;;;;;;;;;;5047062;28;20033;-81
2021/12/05 03:13:24;;;;;;;198.55;82.50;;;;;;;;;;5070695;28;20054;-81
2021/12/05 03:15:51;;;;;;;215.57;86.63;;;;;;;;;;5074678;28;20479;-81
2021/12/05 03:18:17;;;;;;;209.77;87.68;;;;;;;;;;5070826;28;20044;-81
2021/12/05 03:20:44;;;;;;;193.77;81.35;;;;;;;;;;5065536;28;20044;-81
2021/12/05 03:23:11;;;;;;;258.42;87.82;;;;;;;;;;5058401;28;20032;-81
2021/12/05 03:25:38;;;;;;;183.85;74.22;;;;;;;;;;5062668;28;20025;-82
2021/12/05 03:28:06;;;;;;;166.57;71.82;;;;;;;;;;5079826;28;20048;-82
2021/12/05 03:30:33;;;;;;;197.43;72.00;;;;;;;;;;5054046;28;20116;-82
2021/12/05 03:32:59;;;;;;;206.60;77.85;;;;;;;;;;5068206;28;20099;-82
2021/12/05 03:35:27;;;;;;;331.33;94.70;;;;;;;;;;5067606;28;20048;-81
2021/12/05 03:37:54;;;;;;;206.73;77.57;;;;;;;;;;5068789;28;20017;-83
2021/12/05 03:40:22;;;;;;;197.80;77.05;;;;;;;;;;5047883;28;20028;-81
2021/12/05 03:42:50;;;;;;;207.05;85.00;;;;;;;;;;5062848;28;20106;-82
2021/12/05 03:45:19;;;;;;;215.13;81.05;;;;;;;;;;5067634;28;20024;-81
2021/12/05 03:47:46;;;;;;;393.85;103.60;;;;;;;;;;5062860;28;20020;-82
2021/12/05 03:50:13;;;;;;;188.30;75.75;;;;;;;;;;5067040;28;20051;-81
2021/12/05 03:52:40;;;;;;;245.98;86.95;;;;;;;;;;5046516;28;20105;-82
2021/12/05 03:55:07;;;;;;;269.55;96.10;;;;;;;;;;5059696;28;20028;-81
2021/12/05 03:57:34;;;;;;;181.75;74.63;;;;;;;;;;5044247;28;20025;-81
2021/12/05 04:00:00;;;;;;;210.20;79.90;;;;;;;;;;5059486;28;20024;-81
2021/12/05 04:02:27;;;;;;;240.75;83.72;;;;;;;;;;5061114;28;20467;-81
2021/12/05 04:04:53;;;;;;;251.55;85.85;;;;;;;;;;5065320;28;20032;-80
2021/12/05 04:07:19;;;;;;;181.07;77.10;;;;;;;;;;5041524;28;20024;-81
2021/12/05 04:09:46;;;;;;;183.68;75.30;;;;;;;;;;5064933;28;20103;-81
2021/12/05 04:12:15;;;;;;;184.88;77.03;;;;;;;;;;5066604;28;20017;-81
2021/12/05 04:14:46;;;;;;;236.95;81.28;;;;;;;;;;5072490;28;20033;-82
2021/12/05 04:17:13;;;;;;;200.57;78.10;;;;;;;;;;5073160;28;20032;-81
2021/12/05 04:19:39;;;;;;;201.10;77.97;;;;;;;;;;5063541;28;20029;-81
2021/12/05 04:22:06;;;;;;;169.00;69.80;;;;;;;;;;5062408;28;20032;-80
2021/12/05 04:24:35;;;;;;;188.55;74.40;;;;;;;;;;5065680;28;20111;-81
2021/12/05 04:27:01;;;;;;;191.50;76.28;;;;;;;;;;5073319;28;20062;-81
2021/12/05 04:29:28;;;;;;;163.13;69.68;;;;;;;;;;5076196;28;20055;-81
2021/12/05 04:31:54;;;;;;;235.60;81.97;;;;;;;;;;5069048;28;20024;-81
2021/12/05 04:34:21;;;;;;;168.50;71.47;;;;;;;;;;5065334;28;20563;-82
2021/12/05 04:36:47;;;;;;;160.15;69.20;;;;;;;;;;5051591;28;20025;-81
2021/12/05 04:39:14;;;;;;;171.07;70.55;;;;;;;;;;5041262;28;20118;-83
2021/12/05 04:41:42;;;;;;;207.52;77.68;;;;;;;;;;5051874;28;20033;-81
2021/12/05 04:44:08;;;;;;;139.65;65.88;;;;;;;;;;5042589;28;20033;-81
2021/12/05 04:46:35;;;;;;;142.40;62.38;;;;;;;;;;5053203;28;20033;-81
2021/12/05 04:49:02;;;;;;;150.18;65.05;;;;;;;;;;5053492;28;20040;-83
2021/12/05 04:51:33;;;;;;;136.60;62.88;;;;;;;;;;5041757;28;20071;-81
2021/12/05 04:54:02;;;;;;;120.72;58.70;;;;;;;;;;5048101;28;20064;-81
2021/12/05 04:56:29;;;;;;;113.43;57.50;;;;;;;;;;5045932;28;20131;-82
2021/12/05 04:58:56;;;;;;;107.30;57.75;;;;;;;;;;5040449;28;20412;-82
2021/12/05 05:01:22;;;;;;;99.90;53.28;;;;;;;;;;5041875;28;20021;-83
2021/12/05 05:03:49;;;;;;;113.75;54.20;;;;;;;;;;5046512;28;20471;-81
2021/12/05 05:06:16;;;;;;;117.00;54.00;;;;;;;;;;5029390;28;20028;-82
2021/12/05 05:08:43;;;;;;;99.57;49.47;;;;;;;;;;5051662;28;20036;-84
2021/12/05 05:11:11;;;;;;;102.40;52.58;;;;;;;;;;5034111;28;20364;-83
2021/12/05 05:13:38;;;;;;;132.30;58.30;;;;;;;;;;5027897;28;20120;-82
2021/12/05 05:16:07;;;;;;;107.75;50.97;;;;;;;;;;5046991;28;20111;-83
2021/12/05 05:18:44;;;;;;;132.38;61.33;;;;;;;;;;5047343;28;20021;-82
2021/12/05 05:29:32;;;;;;;119.25;61.10;;;;;;;;;;5047789;28;20086;-81
2021/12/05 05:40:23;;;;;;;140.23;61.45;;;;;;;;;;5068641;28;20039;-81
2021/12/05 05:48:16;;;;;;;142.40;64.68;;;;;;;;;;5064794;28;20454;-83
2021/12/05 05:50:46;;;;;;;140.32;67.13;;;;;;;;;;5072551;28;20532;-81
2021/12/05 05:53:12;;;;;;;141.13;68.68;;;;;;;;;;5067124;28;20081;-81
2021/12/05 05:55:39;;;;;;;140.68;66.55;;;;;;;;;;5075155;28;20032;-82
2021/12/05 05:58:10;;;;;;;143.25;68.63;;;;;;;;;;5044057;28;20040;-80
2021/12/05 06:00:50;;;;;;;143.05;68.93;;;;;;;;;;5066176;28;20049;-80
2021/12/05 06:05:46;;;;;;;86.70;48.53;;;;;;;;;;5074427;28;20040;-82
2021/12/05 06:08:13;;;;;;;85.90;49.00;;;;;;;;;;5045217;28;20021;-82
2021/12/05 06:10:40;;;;;;;96.55;52.30;;;;;;;;;;5069489;28;20075;-83
2021/12/05 06:13:07;;;;;;;93.93;48.63;;;;;;;;;;5060462;28;20165;-81
2021/12/05 06:15:34;;;;;;;86.85;48.95;;;;;;;;;;5082253;28;20012;-81
2021/12/05 06:18:00;;;;;;;111.88;55.83;;;;;;;;;;5085789;28;20033;-81
2021/12/05 06:20:28;;;;;;;105.28;53.63;;;;;;;;;;5089876;28;20017;-82
2021/12/05 06:22:55;;;;;;;118.50;60.50;;;;;;;;;;5083464;28;20067;-82
2021/12/05 06:25:24;;;;;;;116.22;60.20;;;;;;;;;;5078621;28;20052;-82
2021/12/05 06:27:54;;;;;;;111.75;60.25;;;;;;;;;;5074051;28;20016;-81
2021/12/05 06:30:46;;;;;;;130.15;61.63;;;;;;;;;;5070961;28;20043;-80
2021/12/05 06:46:39;;;;;;;156.25;76.75;;;;;;;;;;5060095;28;20035;-81
2021/12/05 06:49:05;;;;;;;169.52;79.57;;;;;;;;;;5066096;28;20028;-81
2021/12/05 06:51:32;;;;;;;157.63;75.97;;;;;;;;;;5046099;28;20028;-81
2021/12/05 06:53:58;;;;;;;153.52;70.88;;;;;;;;;;5055830;28;20115;-82
2021/12/05 06:56:25;;;;;;;140.05;69.43;;;;;;;;;;5051093;28;20126;-81
2021/12/05 06:58:52;;;;;;;157.10;74.45;;;;;;;;;;5044497;28;20450;-83
2021/12/05 07:01:19;;;;;;;161.02;75.70;;;;;;;;;;5049896;28;20736;-82
2021/12/05 07:03:48;;;;;;;168.45;79.55;;;;;;;;;;5061959;28;20021;-81
2021/12/05 07:06:21;;;;;;;174.43;85.20;;;;;;;;;;5065103;28;20021;-81
2021/12/05 07:08:49;;;;;;;165.38;81.38;;;;;;;;;;5070276;28;20017;-81
2021/12/05 07:11:36;;;;;;;187.63;83.68;;;;;;;;;;5079423;28;20365;-81
2021/12/05 07:16:38;;;;;;;160.00;77.85;;;;;;;;;;5063879;28;20028;-81
2021/12/05 07:19:19;;;;;;;171.88;81.05;;;;;;;;;;5061062;28;20523;-81
2021/12/05 07:21:51;;;;;;;180.10;82.85;;;;;;;;;;5053233;28;20067;-82
2021/12/05 07:40:23;;;;;;;166.55;75.68;;;;;;;;;;5060103;28;20109;-81
2021/12/05 07:42:50;;;;;;;148.15;73.63;;;;;;;;;;5064769;28;20029;-82
2021/12/05 07:45:21;;;;;;;151.88;72.78;;;;;;;;;;5038842;28;20115;-84
2021/12/05 07:47:50;;;;;;;147.38;74.85;;;;;;;;;;5041864;28;20024;-83
2021/12/05 07:50:20;;;;;;;145.80;74.35;;;;;;;;;;5066211;28;20111;-83
2021/12/05 07:52:51;;;;;;;152.88;74.90;;;;;;;;;;5066773;28;20100;-83
2021/12/05 07:55:23;;;;;;;144.45;71.43;;;;;;;;;;5062464;28;20464;-81
2021/12/05 07:58:08;;;;;;;154.60;71.68;;;;;;;;;;5065009;28;20024;-83
2021/12/05 08:00:47;;;;;;;153.90;73.53;;;;;;;;;;5073050;28;20028;-81
2021/12/05 08:14:53;;;;;;;152.35;74.43;;;;;;;;;;5065074;28;20123;-82
2021/12/05 08:17:14;;;;;;;148.70;73.38;;;;;;;;;;5062030;28;20031;-82
2021/12/05 08:19:40;;;;;;;130.52;70.40;;;;;;;;;;5052041;28;20021;-82
2021/12/05 08:22:06;;;;;;;134.52;72.32;;;;;;;;;;5067635;28;20017;-81
2021/12/05 08:24:35;;;;;;;133.98;75.18;;;;;;;;;;5072824;28;20036;-82
2021/12/05 08:27:04;;;;;;;149.93;74.50;;;;;;;;;;5047660;28;20029;-82
2021/12/05 08:29:50;;;;;;;151.15;77.22;;;;;;;;;;5061783;28;20025;-82
2021/12/05 08:32:50;;;;;;;154.70;79.53;;;;;;;;;;5041645;28;20031;-82
2021/12/05 08:35:16;;;;;;;144.25;75.90;;;;;;;;;;5053859;28;20057;-82
2021/12/05 08:38:42;;;;;;;146.43;74.55;;;;;;;;;;5062370;28;20025;-82
2021/12/05 09:28:33;;;;;;;173.63;90.43;;;;;;;;;;5086098;28;20402;-82
2021/12/05 09:30:46;;;;;;;167.63;88.85;;;;;;;;;;5080102;28;20047;-81
2021/12/05 10:03:11;;;;;;;142.88;75.43;;;;;;;;;;5072799;28;20039;-80
2021/12/05 10:11:26;;;;;;;117.38;64.35;;;;;;;;;;5062754;28;20060;-81
2021/12/05 10:14:10;;;;;;;111.82;60.60;;;;;;;;;;5057604;28;20033;-83
2021/12/05 10:17:21;;;;;;;111.88;61.35;;;;;;;;;;5081756;28;20024;-82
2021/12/05 10:38:48;;;;;;;109.57;52.10;;;;;;;;;;5060885;28;20056;-81
2021/12/05 10:43:57;;;;;;;98.05;50.75;;;;;;;;;;5070981;28;20078;-82
2021/12/05 10:46:26;;;;;;;107.82;53.22;;;;;;;;;;5075270;28;20028;-82
2021/12/05 10:48:57;;;;;;;109.28;55.90;;;;;;;;;;5064306;28;20051;-81
2021/12/05 10:51:28;;;;;;;105.88;53.78;;;;;;;;;;5074424;28;20451;-82
2021/12/05 10:54:21;;;;;;;114.63;57.90;;;;;;;;;;5074472;28;20380;-81
2021/12/05 10:56:50;;;;;;;109.30;54.00;;;;;;;;;;5065957;28;20053;-81
2021/12/05 10:59:26;;;;;;;113.43;58.00;;;;;;;;;;5077500;28;20052;-82
2021/12/05 11:01:57;;;;;;;109.57;57.65;;;;;;;;;;5055778;28;20028;-83
2021/12/05 11:04:32;;;;;;;108.03;56.75;;;;;;;;;;5087910;28;20085;-83
2021/12/05 11:06:59;;;;;;;110.93;59.78;;;;;;;;;;5059076;28;20025;-81
2021/12/05 11:09:32;;;;;;;112.00;60.50;;;;;;;;;;5058444;28;20049;-82
2021/12/05 11:12:18;;;;;;;120.82;64.25;;;;;;;;;;5068896;28;20124;-82
2021/12/05 11:14:48;;;;;;;116.72;60.67;;;;;;;;;;5045547;28;20040;-81
2021/12/05 11:17:16;;;;;;;111.85;58.53;;;;;;;;;;5068638;28;20029;-82
2021/12/05 11:19:44;;;;;;;115.57;61.90;;;;;;;;;;5041813;28;20036;-81
2021/12/05 11:22:18;;;;;;;126.53;65.40;;;;;;;;;;5077257;28;20084;-80
2021/12/05 11:24:46;;;;;;;118.57;63.38;;;;;;;;;;5073003;28;20017;-81
2021/12/05 11:27:15;;;;;;;122.70;62.47;;;;;;;;;;5079816;28;20017;-82
2021/12/05 11:29:59;;;;;;;136.20;63.67;;;;;;;;;;5068987;28;20028;-82
2021/12/05 11:32:35;;;;;;;111.20;60.20;;;;;;;;;;5082132;28;20088;-83
2021/12/05 11:35:17;;;;;;;176.82;89.68;;;;;;;;;;5076481;28;20127;-82
2021/12/05 11:38:04;;;;;;;202.70;96.25;;;;;;;;;;5041793;28;20035;-83
2021/12/05 11:40:41;;;;;;;195.27;90.47;;;;;;;;;;5067105;28;20055;-80
2021/12/05 11:43:08;;;;;;;196.70;92.22;;;;;;;;;;5056755;28;20035;-82
2021/12/05 11:45:49;;;;;;;202.13;94.97;;;;;;;;;;5071512;28;20025;-82
2021/12/05 11:48:21;;;;;;;195.93;87.28;;;;;;;;;;5067656;28;20028;-82
2021/12/05 11:50:48;;;;;;;199.75;87.65;;;;;;;;;;5046714;28;20039;-82
2021/12/05 11:53:14;;;;;;;189.38;86.55;;;;;;;;;;5074426;28;20150;-82
2021/12/05 11:55:41;;;;;;;176.73;87.53;;;;;;;;;;5074250;28;20052;-81
2021/12/05 11:58:19;;;;;;;195.30;88.05;;;;;;;;;;5052638;28;20029;-82
2021/12/05 12:00:46;;;;;;;174.95;81.55;;;;;;;;;;5058931;28;20025;-81
2021/12/05 12:03:12;;;;;;;191.07;83.93;;;;;;;;;;5056108;28;20392;-81
2021/12/05 12:05:39;;;;;;;203.00;88.13;;;;;;;;;;5074044;28;20398;-82
2021/12/05 12:08:10;;;;;;;188.55;87.45;;;;;;;;;;5074190;28;20035;-82
2021/12/05 12:10:44;;;;;;;206.60;90.18;;;;;;;;;;5073709;28;20055;-82
2021/12/05 12:13:12;;;;;;;189.32;85.00;;;;;;;;;;5074077;28;20040;-82
2021/12/05 12:15:39;;;;;;;191.25;87.13;;;;;;;;;;5074212;28;20035;-82
2021/12/05 12:18:13;;;;;;;201.70;89.68;;;;;;;;;;5065155;28;20040;-82
2021/12/05 12:20:44;;;;;;;208.52;92.80;;;;;;;;;;5055570;28;20028;-82
2021/12/05 12:23:10;;;;;;;197.38;90.88;;;;;;;;;;5057552;28;20044;-82
2021/12/05 12:25:38;;;;;;;195.57;90.45;;;;;;;;;;5053664;28;20077;-82
2021/12/05 12:28:06;;;;;;;193.68;92.55;;;;;;;;;;5056306;28;20543;-82
2021/12/05 12:30:35;;;;;;;191.35;86.50;;;;;;;;;;5070336;28;20394;-82
2021/12/05 12:33:28;;;;;;;200.48;87.97;;;;;;;;;;5062170;28;20468;-82
2021/12/05 12:35:55;;;;;;;207.13;90.10;;;;;;;;;;5034420;28;20464;-82
2021/12/05 12:38:27;;;;;;;207.07;91.88;;;;;;;;;;5044499;28;20021;-81
2021/12/05 12:40:56;;;;;;;207.52;94.15;;;;;;;;;;5061813;28;20024;-81
2021/12/05 12:43:41;;;;;;;209.55;92.90;;;;;;;;;;5053628;28;20472;-81
2021/12/05 12:46:20;;;;;;;227.25;107.18;;;;;;;;;;5053503;28;20045;-83
2021/12/05 12:48:47;;;;;;;225.35;103.93;;;;;;;;;;5065831;28;20149;-83
2021/12/05 12:51:34;;;;;;;229.63;103.03;;;;;;;;;;5073502;28;20020;-82
2021/12/05 12:54:03;;;;;;;228.35;98.43;;;;;;;;;;5055736;28;20475;-82
2021/12/05 12:56:30;;;;;;;236.63;94.88;;;;;;;;;;5052220;28;20380;-81
2021/12/05 12:58:59;;;;;;;196.88;87.38;;;;;;;;;;5065982;28;20492;-82
2021/12/05 13:01:40;;;;;;;213.52;86.85;;;;;;;;;;5073335;28;20028;-81
2021/12/05 13:12:45;;;;;;;210.60;86.00;;;;;;;;;;5055700;28;20043;-81
2021/12/05 13:15:12;;;;;;;213.45;85.82;;;;;;;;;;5072945;28;20021;-81
2021/12/05 13:17:39;;;;;;;219.25;87.75;;;;;;;;;;5075448;28;20096;-82
2021/12/05 13:20:07;;;;;;;199.07;81.35;;;;;;;;;;5075164;28;20397;-82
2021/12/05 13:22:33;;;;;;;211.43;83.93;;;;;;;;;;5039238;28;20081;-83
2021/12/05 13:25:05;;;;;;;218.93;88.63;;;;;;;;;;5067874;28;20553;-82
2021/12/05 13:27:32;;;;;;;201.15;85.45;;;;;;;;;;5054387;28;20036;-82
2021/12/05 13:29:59;;;;;;;229.93;90.03;;;;;;;;;;5071013;28;20067;-82
2021/12/05 13:32:29;;;;;;;231.00;91.68;;;;;;;;;;5072632;28;20447;-81
2021/12/05 13:34:59;;;;;;;208.80;92.30;;;;;;;;;;5057837;28;20178;-82
2021/12/05 13:37:30;;;;;;;200.35;92.57;;;;;;;;;;5068507;28;20023;-81
2021/12/05 13:40:05;;;;;;;203.88;89.93;;;;;;;;;;5076538;28;20032;-83
2021/12/05 13:42:39;;;;;;;197.50;86.82;;;;;;;;;;5055137;28;20036;-82
2021/12/05 13:45:17;;;;;;;205.75;87.30;;;;;;;;;;5042104;28;20374;-82
2021/12/05 13:47:53;;;;;;;216.38;95.82;;;;;;;;;;5057622;28;20025;-80
2021/12/05 13:50:21;;;;;;;204.45;93.78;;;;;;;;;;5052740;28;20123;-83
2021/12/05 13:53:03;;;;;;;217.45;101.07;;;;;;;;;;5055433;28;20029;-81
2021/12/05 13:55:49;;;;;;;210.15;96.85;;;;;;;;;;5068172;28;20471;-81
2021/12/05 13:58:18;;;;;;;200.57;95.22;;;;;;;;;;5076395;28;20043;-82
2021/12/05 14:01:05;;;;;;;188.13;88.85;;;;;;;;;;5053246;28;20384;-83
2021/12/05 14:03:50;;;;;;;192.63;88.47;;;;;;;;;;5063042;28;20045;-82
2021/12/05 14:06:35;;;;;;;181.50;85.40;;;;;;;;;;5068506;28;20029;-84
2021/12/05 14:09:04;;;;;;;191.60;88.10;;;;;;;;;;5060074;28;20094;-81
2021/12/05 14:11:31;;;;;;;178.40;82.00;;;;;;;;;;5061388;28;20535;-82
2021/12/05 14:13:57;;;;;;;187.25;85.13;;;;;;;;;;5070419;28;20056;-81
2021/12/05 14:16:30;;;;;;;174.43;79.20;;;;;;;;;;5072302;28;20025;-80
2021/12/05 14:18:57;;;;;;;166.40;79.22;;;;;;;;;;5074582;28;20111;-81
2021/12/05 14:21:25;;;;;;;179.57;80.18;;;;;;;;;;5076710;28;20021;-82
2021/12/05 14:23:53;;;;;;;170.18;80.45;;;;;;;;;;5070516;28;20025;-83
2021/12/05 14:26:21;;;;;;;177.38;85.60;;;;;;;;;;5058163;28;20029;-82
2021/12/05 14:29:06;;;;;;;169.07;77.78;;;;;;;;;;5043738;28;20033;-82
2021/12/05 14:31:34;;;;;;;169.23;81.05;;;;;;;;;;5068292;28;20025;-81
2021/12/05 14:34:02;;;;;;;162.15;77.85;;;;;;;;;;5075617;28;20116;-82
2021/12/05 14:36:31;;;;;;;178.40;82.65;;;;;;;;;;5074423;28;20626;-82
2021/12/05 14:39:11;;;;;;;173.10;79.85;;;;;;;;;;5071520;28;20053;-81
2021/12/05 14:41:39;;;;;;;173.90;82.03;;;;;;;;;;5063820;28;20361;-82
2021/12/05 14:44:05;;;;;;;184.00;85.65;;;;;;;;;;5051769;28;20024;-82
2021/12/05 14:46:32;;;;;;;181.65;85.78;;;;;;;;;;5046331;28;20083;-82
2021/12/05 14:49:01;;;;;;;181.45;82.95;;;;;;;;;;5055963;28;20033;-81
2021/12/05 14:51:32;;;;;;;182.10;86.65;;;;;;;;;;5069355;28;20028;-82
2021/12/05 14:53:58;;;;;;;185.30;85.38;;;;;;;;;;5063664;28;20399;-82
2021/12/05 14:56:33;;;;;;;185.38;83.32;;;;;;;;;;5075661;28;20375;-81
2021/12/05 14:59:13;;;;;;;168.70;82.75;;;;;;;;;;5073790;28;20111;-82
2021/12/05 15:01:40;;;;;;;170.13;80.53;;;;;;;;;;5057953;28;20033;-81
2021/12/05 15:04:09;;;;;;;160.48;76.22;;;;;;;;;;5037898;28;20025;-82
2021/12/05 15:06:41;;;;;;;153.63;73.50;;;;;;;;;;5067499;28;20133;-82
2021/12/05 15:09:18;;;;;;;156.75;76.70;;;;;;;;;;5057244;28;20021;-81
2021/12/05 15:11:52;;;;;;;165.75;73.43;;;;;;;;;;5056429;28;20184;-82
2021/12/05 15:14:19;;;;;;;175.90;80.47;;;;;;;;;;5059837;28;20523;-83
2021/12/05 15:17:00;;;;;;;184.88;88.80;;;;;;;;;;5054527;28;20465;-82
2021/12/05 15:19:26;;;;;;;186.45;93.72;;;;;;;;;;5071342;28;20024;-83
2021/12/05 15:21:53;;;;;;;178.35;90.05;;;;;;;;;;5075728;28;20387;-80
2021/12/05 15:24:21;;;;;;;174.68;84.85;;;;;;;;;;5055944;28;20035;-83
2021/12/05 15:26:48;;;;;;;176.10;84.85;;;;;;;;;;5075299;28;20035;-82
2021/12/05 15:29:14;;;;;;;159.60;76.30;;;;;;;;;;5056732;28;20043;-83
2021/12/05 15:31:42;;;;;;;174.15;83.55;;;;;;;;;;5075102;28;20568;-81
2021/12/05 15:34:18;;;;;;;156.23;78.32;;;;;;;;;;5074535;28;20108;-83
2021/12/05 15:36:45;;;;;;;165.52;80.30;;;;;;;;;;5056571;28;20029;-82
2021/12/05 15:39:19;;;;;;;158.70;77.95;;;;;;;;;;5053699;28;20426;-83
2021/12/05 15:41:45;;;;;;;151.07;75.15;;;;;;;;;;5053274;28;20430;-80
2021/12/05 15:44:22;;;;;;;151.80;72.97;;;;;;;;;;5040297;28;20067;-81
2021/12/05 15:46:48;;;;;;;149.60;74.75;;;;;;;;;;5070833;28;20267;-79
2021/12/05 15:49:15;;;;;;;153.38;72.60;;;;;;;;;;5063644;28;20056;-80
2021/12/05 15:51:41;;;;;;;137.73;67.97;;;;;;;;;;5045539;28;20032;-86
2021/12/05 15:54:08;;;;;;;135.90;69.65;;;;;;;;;;5072682;28;20035;-82
2021/12/05 15:56:34;;;;;;;146.65;70.57;;;;;;;;;;5055088;28;20094;-84
2021/12/05 15:59:02;;;;;;;149.98;71.75;;;;;;;;;;5074799;28;20652;-81
2021/12/05 16:01:29;;;;;;;143.38;70.57;;;;;;;;;;5074651;28;20024;-83
2021/12/05 16:03:58;;;;;;;140.05;69.03;;;;;;;;;;5058191;28;20371;-83
2021/12/05 16:06:38;;;;;;;129.40;63.28;;;;;;;;;;5045495;28;20054;-84
2021/12/05 16:09:16;;;;;;;130.23;65.65;;;;;;;;;;5071190;28;20056;-83
2021/12/05 16:11:43;;;;;;;138.38;66.97;;;;;;;;;;5073315;28;20306;-83
2021/12/05 16:14:09;;;;;;;132.55;66.45;;;;;;;;;;5070209;28;20024;-83
2021/12/05 16:16:36;;;;;;;134.50;63.55;;;;;;;;;;5061332;28;20029;-86
2021/12/05 16:19:07;;;;;;;144.90;64.55;;;;;;;;;;5055564;28;20035;-83
2021/12/05 16:21:36;;;;;;;137.20;67.57;;;;;;;;;;5054261;28;20111;-84
2021/12/05 16:24:07;;;;;;;135.43;68.28;;;;;;;;;;5065180;28;20103;-84
2021/12/05 16:26:33;;;;;;;141.85;68.43;;;;;;;;;;5067512;28;20502;-81
2021/12/05 16:29:02;;;;;;;136.38;71.00;;;;;;;;;;5074109;28;20497;-83
2021/12/05 16:31:30;;;;;;;143.50;72.75;;;;;;;;;;5067312;28;20032;-82
2021/12/05 16:33:56;;;;;;;145.75;74.35;;;;;;;;;;5058522;28;20031;-85
2021/12/05 16:36:29;;;;;;;158.52;79.30;;;;;;;;;;5077024;28;20056;-83
2021/12/05 16:38:55;;;;;;;161.68;82.63;;;;;;;;;;5085440;28;20028;-83
2021/12/05 16:41:26;;;;;;;161.07;83.40;;;;;;;;;;5070516;28;20109;-82
2021/12/05 16:43:55;;;;;;;162.43;83.50;;;;;;;;;;5069907;28;20088;-82
2021/12/05 16:46:24;;;;;;;151.73;79.97;;;;;;;;;;5053906;28;20491;-85
2021/12/05 16:48:52;;;;;;;161.75;79.15;;;;;;;;;;5061477;28;20304;-82
2021/12/05 16:51:18;;;;;;;152.70;74.88;;;;;;;;;;5063228;28;20078;-83
2021/12/05 16:53:47;;;;;;;156.52;74.80;;;;;;;;;;5072993;28;20541;-85
2021/12/05 16:56:33;;;;;;;154.50;74.38;;;;;;;;;;5062765;28;20391;-83
2021/12/05 16:59:09;;;;;;;155.05;70.97;;;;;;;;;;5068596;28;20173;-81
2021/12/05 17:01:36;;;;;;;137.32;66.43;;;;;;;;;;5080020;28;20025;-84
2021/12/05 17:04:02;;;;;;;139.45;65.97;;;;;;;;;;5073235;28;20059;-82
2021/12/05 17:06:30;;;;;;;140.45;66.72;;;;;;;;;;5085465;28;20123;-82
2021/12/05 17:08:56;;;;;;;135.57;65.53;;;;;;;;;;5086811;28;20025;-82
2021/12/05 17:11:26;;;;;;;141.20;67.57;;;;;;;;;;5082372;28;20024;-82
2021/12/05 17:13:54;;;;;;;134.80;64.25;;;;;;;;;;5071440;28;20112;-83
2021/12/05 17:16:23;;;;;;;137.77;65.82;;;;;;;;;;5082642;28;20093;-83
2021/12/05 17:18:56;;;;;;;137.27;65.05;;;;;;;;;;5057903;28;20028;-82
2021/12/05 17:21:26;;;;;;;139.05;66.13;;;;;;;;;;5069223;28;20123;-81
2021/12/05 17:24:01;;;;;;;143.45;67.28;;;;;;;;;;5068043;28;20032;-83
2021/12/05 17:26:30;;;;;;;138.25;64.93;;;;;;;;;;5067312;28;20033;-82
2021/12/05 17:29:12;;;;;;;123.72;63.85;;;;;;;;;;5066873;28;20039;-82
2021/12/05 17:31:43;;;;;;;138.65;65.30;;;;;;;;;;5052721;28;20025;-83
2021/12/05 17:34:11;;;;;;;136.95;68.90;;;;;;;;;;5066937;28;20067;-83
2021/12/05 17:36:39;;;;;;;144.25;70.13;;;;;;;;;;5035067;28;20086;-83
2021/12/05 17:39:08;;;;;;;127.97;67.75;;;;;;;;;;5061560;28;20036;-82
2021/12/05 17:41:34;;;;;;;137.70;69.28;;;;;;;;;;5053129;28;20021;-83
2021/12/05 17:44:03;;;;;;;133.27;66.00;;;;;;;;;;5066343;28;20060;-84
2021/12/05 17:46:30;;;;;;;126.05;60.95;;;;;;;;;;5059953;28;20066;-86
2021/12/05 17:48:57;;;;;;;134.43;60.80;;;;;;;;;;5081669;28;20459;-83
2021/12/05 17:51:32;;;;;;;131.55;63.35;;;;;;;;;;5069366;28;20032;-82
2021/12/05 17:53:58;;;;;;;128.20;61.17;;;;;;;;;;5061801;28;20037;-81
2021/12/05 17:56:37;;;;;;;133.07;59.35;;;;;;;;;;5068443;28;20029;-81
2021/12/05 17:59:12;;;;;;;136.75;61.92;;;;;;;;;;5068528;28;20017;-81
2021/12/05 18:04:25;;;;;;;132.45;58.25;;;;;;;;;;5063962;28;20064;-81
2021/12/05 18:06:51;;;;;;;129.10;58.65;;;;;;;;;;5070580;28;20036;-81
2021/12/05 18:09:17;;;;;;;126.60;55.75;;;;;;;;;;5068505;28;20024;-80
2021/12/05 18:11:44;;;;;;;118.82;56.35;;;;;;;;;;5068055;28;20081;-81
2021/12/05 18:14:11;;;;;;;121.13;56.13;;;;;;;;;;5066954;28;20025;-82
2021/12/05 18:16:37;;;;;;;118.45;56.95;;;;;;;;;;5062057;28;20036;-82
2021/12/05 18:19:08;;;;;;;122.68;55.40;;;;;;;;;;5065782;28;20103;-79
2021/12/05 18:21:37;;;;;;;125.60;57.00;;;;;;;;;;5053910;28;20060;-80
2021/12/05 18:24:05;;;;;;;124.50;57.83;;;;;;;;;;5077360;28;20028;-80
2021/12/05 18:26:31;;;;;;;127.65;58.38;;;;;;;;;;5062741;28;20040;-81
2021/12/05 18:28:58;;;;;;;129.18;59.15;;;;;;;;;;5069949;28;20028;-81
2021/12/05 18:31:26;;;;;;;122.00;56.78;;;;;;;;;;5070796;28;20059;-80
2021/12/05 18:33:56;;;;;;;134.32;59.38;;;;;;;;;;5071716;28;20031;-80
2021/12/05 18:36:23;;;;;;;133.70;62.55;;;;;;;;;;5067396;28;20563;-81
2021/12/05 18:38:50;;;;;;;132.02;58.67;;;;;;;;;;5063669;28;20052;-80
2021/12/05 18:41:17;;;;;;;129.65;58.80;;;;;;;;;;5057022;28;20035;-82
2021/12/05 18:43:44;;;;;;;133.15;59.83;;;;;;;;;;5071402;28;20157;-81
2021/12/05 18:46:12;;;;;;;131.05;62.50;;;;;;;;;;5055954;28;20621;-82
2021/12/05 18:48:41;;;;;;;133.23;60.13;;;;;;;;;;5069143;28;20029;-81
2021/12/05 18:51:08;;;;;;;135.73;62.00;;;;;;;;;;5056027;28;20106;-79
2021/12/05 18:53:34;;;;;;;125.00;62.08;;;;;;;;;;5066984;28;20112;-80
2021/12/05 18:56:01;;;;;;;131.68;64.07;;;;;;;;;;5069469;28;20085;-79
2021/12/05 18:58:28;;;;;;;132.27;62.08;;;;;;;;;;5062275;28;20029;-80
2021/12/05 19:06:34;;;;;;;132.13;64.93;;;;;;;;;;5066318;28;20039;-80
2021/12/05 19:11:47;;;;;;;127.25;64.00;;;;;;;;;;5075348;28;20032;-82
2021/12/05 19:14:25;;;;;;;136.50;66.70;;;;;;;;;;5082638;28;20064;-79
2021/12/05 19:16:54;;;;;;;143.48;66.88;;;;;;;;;;5061077;28;20040;-81
2021/12/05 19:19:21;;;;;;;148.93;68.18;;;;;;;;;;5066297;28;20116;-79
2021/12/05 19:21:48;;;;;;;138.30;66.93;;;;;;;;;;5061371;28;20365;-82
2021/12/05 19:24:14;;;;;;;129.10;63.60;;;;;;;;;;5068991;28;20032;-83
2021/12/05 19:26:41;;;;;;;140.82;68.82;;;;;;;;;;5040673;28;20028;-80
2021/12/05 19:29:08;;;;;;;129.60;63.97;;;;;;;;;;5065524;28;20021;-84
2021/12/05 19:31:35;;;;;;;129.73;62.05;;;;;;;;;;5060983;28;20033;-83
2021/12/05 19:34:02;;;;;;;125.95;62.92;;;;;;;;;;5049787;28;20028;-82